createdAt,value
2018-06-10T00:02:30.255Z,16.57
2018-06-10T00:05:04.397Z,17.30
2018-06-10T00:07:38.445Z,14.40
2018-06-10T00:10:12.549Z,13.93
2018-06-10T00:12:46.637Z,11.73
2018-06-10T00:15:20.877Z,16.37
2018-06-10T00:17:54.827Z,16.07
2018-06-10T00:20:29.075Z,16.33
2018-06-10T00:23:03.243Z,12.17
2018-06-10T00:25:37.306Z,19.33
2018-06-10T00:28:11.306Z,24.57
2018-06-10T00:30:45.314Z,18.87
2018-06-10T00:33:19.227Z,22.93
2018-06-10T00:35:53.215Z,18.40
2018-06-10T00:38:27.368Z,17.50
2018-06-10T00:41:01.346Z,15.17
2018-06-10T00:43:35.228Z,20.17
2018-06-10T00:46:09.122Z,20.67
2018-06-10T00:48:43.116Z,20.77
2018-06-10T00:51:17.012Z,19.87
2018-06-10T00:53:51.059Z,18.67
2018-06-10T00:56:36.160Z,18.93
2018-06-10T00:59:10.224Z,16.67
2018-06-10T01:01:44.366Z,18.03
2018-06-10T01:04:18.318Z,19.57
2018-06-10T01:06:52.390Z,19.10
2018-06-10T01:09:29.823Z,16.87
2018-06-10T01:12:04.518Z,22.03
2018-06-10T01:14:38.589Z,17.00
2018-06-10T01:17:12.580Z,16.00
2018-06-10T01:19:46.595Z,18.53
2018-06-10T01:22:20.702Z,23.30
2018-06-10T01:24:54.887Z,20.80
2018-06-10T01:27:28.913Z,23.53
2018-06-10T01:30:02.936Z,21.63
2018-06-10T01:32:36.920Z,26.13
2018-06-10T01:35:10.891Z,24.20
2018-06-10T01:37:45.135Z,25.13
2018-06-10T01:40:19.204Z,20.60
2018-06-10T01:42:53.246Z,23.50
2018-06-10T01:45:27.178Z,21.77
2018-06-10T01:48:01.167Z,25.07
2018-06-10T01:50:35.109Z,23.43
2018-06-10T01:53:09.149Z,23.53
2018-06-10T01:55:43.040Z,19.97
2018-06-10T01:58:17.292Z,18.10
2018-06-10T02:00:51.399Z,27.70
2018-06-10T02:03:25.362Z,23.23
2018-06-10T02:05:59.340Z,29.37
2018-06-10T02:08:33.346Z,23.97
2018-06-10T02:11:07.354Z,27.23
2018-06-10T02:13:41.560Z,22.30
2018-06-10T02:16:15.642Z,28.43
2018-06-10T02:18:49.586Z,23.63
2018-06-10T02:21:23.520Z,30.33
2018-06-10T02:23:57.512Z,26.93
2018-06-10T02:26:31.677Z,25.97
2018-06-10T02:29:05.927Z,26.13
2018-06-10T02:31:39.840Z,26.63
2018-06-10T02:34:13.855Z,33.97
2018-06-10T02:36:47.769Z,25.03
2018-06-10T02:39:21.845Z,25.60
2018-06-10T02:41:55.844Z,25.50
2018-06-10T02:44:29.857Z,24.83
2018-06-10T02:47:04.007Z,22.57
2018-06-10T02:49:38.027Z,19.97
2018-06-10T02:52:12.125Z,24.33
2018-06-10T02:54:46.098Z,25.87
2018-06-10T02:57:20.135Z,20.80
2018-06-10T02:59:54.206Z,28.67
2018-06-10T03:02:28.252Z,27.93
2018-06-10T03:05:02.280Z,22.53
2018-06-10T03:07:36.132Z,26.30
2018-06-10T03:10:10.302Z,23.23
2018-06-10T03:12:44.736Z,24.00
2018-06-10T03:15:19.046Z,28.73
2018-06-10T03:17:52.999Z,21.93
2018-06-10T03:20:27.184Z,22.30
2018-06-10T03:23:01.348Z,20.40
2018-06-10T03:25:35.317Z,20.90
2018-06-10T03:28:09.331Z,18.80
2018-06-10T03:30:43.415Z,20.67
2018-06-10T03:33:17.387Z,19.07
2018-06-10T03:35:51.514Z,26.03
2018-06-10T03:38:25.395Z,26.63
2018-06-10T03:40:59.389Z,20.93
2018-06-10T03:43:33.640Z,27.63
2018-06-10T03:46:07.810Z,22.07
2018-06-10T03:48:41.733Z,21.47
2018-06-10T03:51:15.740Z,23.27
2018-06-10T03:53:49.664Z,22.10
2018-06-10T03:56:23.698Z,18.70
2018-06-10T03:58:57.655Z,23.67
2018-06-10T04:01:31.888Z,22.30
2018-06-10T04:04:06.020Z,18.07
2018-06-10T04:06:39.947Z,15.90
2018-06-10T04:09:13.975Z,17.33
2018-06-10T04:11:48.094Z,19.17
2018-06-10T04:14:22.349Z,17.97
2018-06-10T04:16:56.464Z,14.53
2018-06-10T04:19:30.539Z,15.13
2018-06-10T04:22:04.607Z,18.37
2018-06-10T04:24:38.478Z,19.10
2018-06-10T04:27:12.556Z,16.57
2018-06-10T04:29:46.498Z,20.43
2018-06-10T04:32:20.627Z,22.47
2018-06-10T04:34:54.761Z,17.20
2018-06-10T04:37:28.776Z,17.50
2018-06-10T04:40:02.910Z,20.43
2018-06-10T04:42:36.951Z,21.13
2018-06-10T04:45:10.921Z,17.53
2018-06-10T04:47:44.900Z,13.57
2018-06-10T04:50:18.884Z,23.13
2018-06-10T04:52:52.973Z,23.77
2018-06-10T04:55:26.965Z,16.53
2018-06-10T04:58:01.021Z,21.23
2018-06-10T05:00:34.951Z,18.13
2018-06-10T05:03:08.954Z,19.80
2018-06-10T05:05:42.892Z,17.33
2018-06-10T05:08:16.944Z,15.23
2018-06-10T05:10:50.814Z,21.97
2018-06-10T05:13:24.939Z,21.67
2018-06-10T05:15:58.962Z,23.37
2018-06-10T05:18:32.987Z,20.00
2018-06-10T05:21:06.944Z,21.83
2018-06-10T05:23:40.901Z,23.73
2018-06-10T05:26:14.898Z,20.83
2018-06-10T05:28:48.902Z,17.27
2018-06-10T05:31:22.798Z,24.10
2018-06-10T05:33:56.828Z,20.53
2018-06-10T05:36:30.835Z,16.63
2018-06-10T05:39:10.734Z,14.90
2018-06-10T05:41:44.716Z,17.10
2018-06-10T05:44:18.748Z,19.10
2018-06-10T05:46:52.851Z,15.90
2018-06-10T05:49:27.030Z,19.17
2018-06-10T05:52:01.015Z,12.73
2018-06-10T05:54:35.024Z,15.83
2018-06-10T05:57:08.983Z,15.20
2018-06-10T05:59:43.263Z,19.00
2018-06-10T06:02:17.543Z,30.87
2018-06-10T06:04:51.576Z,17.90
2018-06-10T06:07:25.555Z,20.30
2018-06-10T06:09:59.639Z,14.23
2018-06-10T06:12:33.731Z,16.13
2018-06-10T06:15:07.650Z,17.73
2018-06-10T06:17:41.667Z,14.83
2018-06-10T06:20:15.814Z,16.07
2018-06-10T06:22:49.816Z,16.10
2018-06-10T06:25:23.852Z,25.67
2018-06-10T06:27:57.867Z,17.50
2018-06-10T06:31:56.269Z,35.57
2018-06-10T06:34:30.203Z,24.87
2018-06-10T06:37:04.179Z,16.73
2018-06-10T06:39:38.235Z,16.13
2018-06-10T06:42:12.332Z,18.07
2018-06-10T06:44:46.289Z,22.93
2018-06-10T06:47:20.500Z,19.97
2018-06-10T06:49:54.388Z,20.33
2018-06-10T06:52:28.435Z,18.43
2018-06-10T06:55:02.423Z,17.87
2018-06-10T06:57:36.428Z,15.33
2018-06-10T07:00:10.352Z,16.00
2018-06-10T07:02:44.387Z,20.23
2018-06-10T07:05:18.412Z,20.27
2018-06-10T07:07:52.935Z,23.50
2018-06-10T07:10:26.957Z,21.77
2018-06-10T07:13:01.134Z,21.23
2018-06-10T07:15:35.315Z,19.10
2018-06-10T07:18:12.711Z,20.83
2018-06-10T07:20:47.074Z,18.53
2018-06-10T07:23:21.165Z,17.80
2018-06-10T07:25:55.168Z,19.47
2018-06-10T07:28:29.172Z,22.10
2018-06-10T07:31:03.278Z,21.23
2018-06-10T07:33:37.272Z,20.47
2018-06-10T07:36:11.493Z,18.70
2018-06-10T07:38:46.812Z,24.50
2018-06-10T07:41:20.927Z,18.80
2018-06-10T07:43:54.987Z,19.30
2018-06-10T07:46:29.108Z,25.20
2018-06-10T07:49:03.130Z,20.80
2018-06-10T07:51:37.216Z,24.23
2018-06-10T07:54:13.022Z,22.27
2018-06-10T07:56:46.967Z,25.47
2018-06-10T07:59:21.063Z,22.00
2018-06-10T08:01:55.122Z,22.30
2018-06-10T08:04:29.157Z,22.87
2018-06-10T08:07:03.188Z,27.07
2018-06-10T08:09:37.527Z,18.67
2018-06-10T08:12:11.510Z,21.00
2018-06-10T08:14:45.793Z,23.13
2018-06-10T08:17:19.894Z,21.73
2018-06-10T08:19:54.066Z,23.80
2018-06-10T08:22:28.311Z,22.17
2018-06-10T08:25:02.471Z,20.20
2018-06-10T08:27:36.452Z,22.67
2018-06-10T08:30:10.589Z,22.03
2018-06-10T08:32:44.669Z,22.00
2018-06-10T08:35:18.732Z,20.03
2018-06-10T08:37:52.653Z,22.87
2018-06-10T08:40:27.248Z,19.27
2018-06-10T08:43:01.379Z,24.33
2018-06-10T08:45:35.731Z,20.07
2018-06-10T08:48:09.815Z,20.83
2018-06-10T08:50:44.191Z,24.50
2018-06-10T08:53:18.252Z,23.83
2018-06-10T08:55:52.438Z,29.00
2018-06-10T08:58:26.581Z,54.27
2018-06-10T09:01:00.984Z,35.23
2018-06-10T09:03:35.931Z,23.67
2018-06-10T09:06:10.299Z,37.47
2018-06-10T09:08:44.595Z,17.97
2018-06-10T09:11:19.626Z,17.83
2018-06-10T09:13:53.582Z,14.97
2018-06-10T09:16:30.159Z,14.47
2018-06-10T09:20:29.408Z,9.47
2018-06-10T09:25:52.071Z,10.00
2018-06-10T09:28:26.577Z,12.23
2018-06-10T09:31:00.811Z,19.40
2018-06-10T09:33:35.156Z,19.23
2018-06-10T09:36:10.033Z,20.37
2018-06-10T09:38:44.312Z,23.30
2018-06-10T09:41:18.389Z,19.53
2018-06-10T09:43:52.651Z,16.17
2018-06-10T09:46:26.822Z,24.80
2018-06-10T09:49:00.799Z,26.77
2018-06-10T09:51:34.690Z,30.73
2018-06-10T09:54:08.814Z,23.40
2018-06-10T09:56:42.761Z,18.70
2018-06-10T09:59:16.965Z,25.43
2018-06-10T10:01:51.121Z,29.10
2018-06-10T10:04:25.194Z,24.40
2018-06-10T10:06:59.090Z,21.93
2018-06-10T10:09:34.215Z,24.63
2018-06-10T10:12:08.391Z,23.13
2018-06-10T10:14:43.248Z,29.67
2018-06-10T10:17:17.369Z,71.50
2018-06-10T10:19:51.364Z,64.57
2018-06-10T10:22:25.422Z,29.87
2018-06-10T10:24:59.598Z,19.37
2018-06-10T10:27:33.719Z,22.93
2018-06-10T10:30:08.850Z,13.17
2018-06-10T10:32:42.956Z,14.27
2018-06-10T10:35:17.136Z,18.90
2018-06-10T10:37:52.175Z,20.57
2018-06-10T10:40:26.382Z,17.03
2018-06-10T10:43:01.615Z,21.23
2018-06-10T10:45:35.788Z,23.23
2018-06-10T10:48:09.810Z,17.67
2018-06-10T10:50:43.815Z,17.17
2018-06-10T10:53:18.005Z,15.37
2018-06-10T10:55:52.057Z,16.30
2018-06-10T10:58:26.244Z,16.63
2018-06-10T11:01:00.486Z,17.67
2018-06-10T11:03:34.560Z,19.47
2018-06-10T11:06:08.749Z,16.77
2018-06-10T11:08:42.926Z,17.20
2018-06-10T11:11:17.010Z,26.83
2018-06-10T11:13:50.927Z,16.00
2018-06-10T11:16:25.033Z,33.77
2018-06-10T11:18:59.018Z,28.53
2018-06-10T11:21:33.138Z,13.77
2018-06-10T11:24:07.300Z,16.80
2018-06-10T11:26:41.482Z,18.27
2018-06-10T11:29:15.571Z,21.67
2018-06-10T11:31:49.721Z,16.57
2018-06-10T11:34:23.725Z,28.23
2018-06-10T11:36:57.718Z,154.53
2018-06-10T11:39:31.783Z,18.77
2018-06-10T11:41:59.813Z,17.07
2018-06-10T11:44:27.756Z,17.73
2018-06-10T11:46:55.663Z,17.93
2018-06-10T11:49:23.654Z,17.30
2018-06-10T11:51:51.571Z,15.23
2018-06-10T11:54:19.465Z,19.97
2018-06-10T11:56:47.429Z,16.27
2018-06-10T11:59:15.476Z,16.93
2018-06-10T12:01:43.456Z,14.90
2018-06-10T12:04:11.401Z,14.73
2018-06-10T12:06:39.345Z,13.50
2018-06-10T12:09:07.740Z,13.03
2018-06-10T12:11:35.869Z,13.43
2018-06-10T12:14:03.823Z,14.17
2018-06-10T12:16:31.755Z,14.00
2018-06-10T12:18:59.723Z,20.97
2018-06-10T12:21:27.657Z,15.07
2018-06-10T12:23:55.571Z,20.80
2018-06-10T12:26:23.535Z,16.90
2018-06-10T12:28:51.524Z,19.20
2018-06-10T12:31:19.434Z,16.33
2018-06-10T12:33:47.445Z,21.90
2018-06-10T12:36:15.374Z,39.03
2018-06-10T12:38:43.335Z,22.00
2018-06-10T12:41:11.286Z,17.63
2018-06-10T12:43:39.206Z,79.63
2018-06-10T12:46:07.140Z,23.90
2018-06-10T12:48:35.080Z,27.60
2018-06-10T12:51:03.015Z,22.00
2018-06-10T12:53:30.965Z,17.57
2018-06-10T12:55:59.034Z,19.83
2018-06-10T12:58:26.979Z,21.10
2018-06-10T13:00:54.909Z,19.50
2018-06-10T13:03:23.244Z,19.47
2018-06-10T13:05:51.204Z,19.83
2018-06-10T13:08:19.119Z,20.20
2018-06-10T13:10:47.164Z,15.90
2018-06-10T13:13:15.106Z,19.70
2018-06-10T13:15:43.018Z,17.43
2018-06-10T13:18:11.842Z,17.63
2018-06-10T13:20:39.768Z,16.13
2018-06-10T13:23:07.727Z,18.70
2018-06-10T13:25:35.697Z,22.90
2018-06-10T13:28:03.695Z,23.47
2018-06-10T13:30:31.719Z,25.67
2018-06-10T13:32:59.725Z,17.63
2018-06-10T13:35:27.668Z,16.67
2018-06-10T13:37:55.645Z,16.57
2018-06-10T13:40:23.710Z,18.77
2018-06-10T13:42:51.648Z,18.47
2018-06-10T13:45:19.699Z,21.63
2018-06-10T13:47:47.776Z,25.17
2018-06-10T13:50:15.716Z,20.53
2018-06-10T13:52:43.631Z,22.33
2018-06-10T13:55:11.609Z,23.03
2018-06-10T13:57:39.526Z,24.97
2018-06-10T14:00:07.475Z,28.20
2018-06-10T14:02:35.555Z,21.97
2018-06-10T14:05:03.566Z,21.10
2018-06-10T14:07:31.522Z,22.50
2018-06-10T14:09:59.491Z,23.00
2018-06-10T14:12:27.452Z,27.17
2018-06-10T14:14:55.411Z,28.13
2018-06-10T14:17:23.368Z,42.00
2018-06-10T14:19:51.311Z,53.60
2018-06-10T14:22:19.230Z,56.73
2018-06-10T14:24:48.092Z,20.17
2018-06-10T14:27:16.009Z,30.63
2018-06-10T14:29:43.977Z,29.60
2018-06-10T14:32:12.024Z,28.17
2018-06-10T14:34:39.953Z,30.10
2018-06-10T14:37:07.892Z,95.97
2018-06-10T14:39:35.866Z,37.73
2018-06-10T14:42:03.845Z,26.97
2018-06-10T14:44:31.823Z,31.40
2018-06-10T14:46:59.857Z,25.67
2018-06-10T14:49:27.808Z,22.07
2018-06-10T14:51:55.800Z,24.30
2018-06-10T14:54:23.767Z,30.90
2018-06-10T14:56:51.703Z,22.63
2018-06-10T14:59:19.634Z,28.57
2018-06-10T15:01:47.588Z,21.33
2018-06-10T15:04:15.560Z,29.10
2018-06-10T15:06:43.611Z,28.40
2018-06-10T15:09:11.720Z,26.07
2018-06-10T15:11:39.647Z,25.27
2018-06-10T15:14:08.319Z,16.33
2018-06-10T15:16:36.294Z,431.50
2018-06-10T15:19:04.264Z,214.00
2018-06-10T15:21:32.204Z,134.77
2018-06-10T15:24:00.206Z,743.07
2018-06-10T15:26:28.769Z,842.57
2018-06-10T15:28:56.771Z,499.40
2018-06-10T15:31:24.779Z,644.77
2018-06-10T15:33:52.811Z,503.43
2018-06-10T15:36:20.811Z,503.57
2018-06-10T15:38:48.770Z,56.17
2018-06-10T15:41:16.712Z,120.10
2018-06-10T15:43:44.634Z,32.73
2018-06-10T15:46:12.614Z,40.10
2018-06-10T15:48:40.522Z,25.60
2018-06-10T15:51:08.450Z,26.97
2018-06-10T15:53:36.504Z,21.53
2018-06-10T15:56:04.496Z,26.00
2018-06-10T15:58:32.547Z,18.93
2018-06-10T16:01:00.633Z,48.13
2018-06-10T16:03:28.681Z,18.53
2018-06-10T16:05:56.672Z,18.13
2018-06-10T16:08:31.285Z,26.33
2018-06-10T16:11:01.185Z,26.97
2018-06-10T16:13:29.315Z,30.97
2018-06-10T16:15:57.334Z,28.07
2018-06-10T16:18:25.382Z,23.43
2018-06-10T16:20:58.670Z,48.73
2018-06-10T16:23:26.617Z,43.97
2018-06-10T16:25:54.551Z,22.90
2018-06-10T16:28:22.578Z,21.07
2018-06-10T16:30:50.472Z,24.17
2018-06-10T16:33:18.405Z,27.87
2018-06-10T16:35:46.660Z,27.93
2018-06-10T16:38:14.583Z,40.20
2018-06-10T16:40:42.504Z,23.70
2018-06-10T16:43:10.680Z,27.53
2018-06-10T16:45:38.597Z,22.83
2018-06-10T16:48:06.536Z,20.40
2018-06-10T16:50:35.986Z,231.57
2018-06-10T16:53:03.934Z,44.30
2018-06-10T16:55:31.872Z,31.67
2018-06-10T16:58:00.155Z,27.20
2018-06-10T17:00:28.083Z,20.40
2018-06-10T17:02:55.999Z,23.10
2018-06-10T17:05:23.968Z,30.43
2018-06-10T17:07:51.994Z,25.20
2018-06-10T17:10:19.922Z,22.60
2018-06-10T17:12:47.885Z,23.60
2018-06-10T17:15:15.843Z,49.90
2018-06-10T17:17:43.780Z,35.93
2018-06-10T17:20:11.826Z,17.43
2018-06-10T17:22:39.760Z,15.87
2018-06-10T17:25:07.683Z,17.97
2018-06-10T17:27:35.632Z,27.00
2018-06-10T17:30:04.019Z,19.43
2018-06-10T17:32:31.940Z,19.90
2018-06-10T17:35:00.814Z,21.17
2018-06-10T17:37:29.522Z,23.23
2018-06-10T17:39:57.438Z,22.50
2018-06-10T17:42:25.422Z,26.00
2018-06-10T17:44:53.515Z,21.20
2018-06-10T17:47:21.659Z,22.17
2018-06-10T17:49:50.696Z,20.93
2018-06-10T17:52:20.073Z,23.00
2018-06-10T17:54:48.756Z,26.53
2018-06-10T17:57:16.730Z,26.33
2018-06-10T17:59:44.658Z,32.40
2018-06-10T18:02:12.610Z,25.83
2018-06-10T18:04:40.935Z,25.70
2018-06-10T18:07:09.206Z,31.20
2018-06-10T18:09:38.103Z,24.87
2018-06-10T18:19:12.618Z,19.33
2018-06-10T18:21:40.852Z,26.33
2018-06-10T18:24:09.996Z,23.83
2018-06-10T18:26:44.982Z,22.83
2018-06-10T18:29:14.234Z,20.30
2018-06-10T18:31:44.947Z,21.63
2018-06-10T18:34:13.453Z,16.90
2018-06-10T18:36:42.158Z,32.77
2018-06-10T18:39:11.696Z,22.50
2018-06-10T18:41:39.790Z,22.47
2018-06-10T18:44:07.979Z,26.43
2018-06-10T18:46:36.203Z,25.73
2018-06-10T18:49:07.370Z,107.00
2018-06-10T18:51:39.357Z,21.00
2018-06-10T18:54:08.470Z,52.30
2018-06-10T18:56:37.120Z,17.43
2018-06-10T18:59:05.577Z,16.03
2018-06-10T19:01:34.937Z,18.43
2018-06-10T19:04:03.639Z,16.60
2018-06-10T19:06:32.598Z,48.10
2018-06-10T19:09:23.015Z,26.87
2018-06-10T19:11:51.155Z,21.97
2018-06-10T19:14:19.238Z,20.80
2018-06-10T19:16:47.263Z,22.50
2018-06-10T19:19:15.402Z,22.63
2018-06-10T19:21:43.477Z,23.20
2018-06-10T19:24:11.575Z,23.40
2018-06-10T19:26:40.899Z,30.77
2018-06-10T19:29:09.514Z,21.60
2018-06-10T19:31:38.144Z,23.80
2018-06-10T19:34:06.263Z,17.37
2018-06-10T19:36:35.453Z,22.20
2018-06-10T19:39:04.525Z,20.73
2018-06-10T19:41:33.064Z,26.73
2018-06-10T19:44:01.388Z,27.70
2018-06-10T19:46:29.503Z,26.07
2018-06-10T19:48:57.973Z,24.80
2018-06-10T19:51:26.086Z,18.20
2018-06-10T19:53:54.194Z,23.23
2018-06-10T19:56:23.403Z,26.27
2018-06-10T19:58:58.028Z,21.13
2018-06-10T20:01:33.232Z,18.00
2018-06-10T20:04:08.060Z,18.37
2018-06-10T20:06:42.281Z,19.67
2018-06-10T20:09:16.466Z,19.53
2018-06-10T20:11:50.558Z,21.10
2018-06-10T20:14:25.082Z,20.47
2018-06-10T20:16:59.195Z,25.00
2018-06-10T20:19:33.497Z,22.30
2018-06-10T20:22:08.012Z,22.67
2018-06-10T20:24:43.125Z,24.10
2018-06-10T20:27:17.540Z,26.17
2018-06-10T20:29:51.814Z,18.80
2018-06-10T20:32:26.504Z,18.93
2018-06-10T20:35:01.028Z,23.47
2018-06-10T20:37:36.587Z,19.90
2018-06-10T20:40:10.778Z,24.70
2018-06-10T20:42:45.132Z,27.73
2018-06-10T20:45:19.335Z,18.20
2018-06-10T20:47:53.787Z,15.07
2018-06-10T20:50:28.275Z,17.37
2018-06-10T20:53:02.494Z,19.67
2018-06-10T20:55:36.708Z,21.60
2018-06-10T20:58:11.067Z,16.70
2018-06-10T21:00:45.115Z,17.60
2018-06-10T21:03:19.352Z,21.40
2018-06-10T21:05:54.651Z,22.43
2018-06-10T21:08:29.357Z,28.97
2018-06-10T21:11:03.387Z,17.33
2018-06-10T21:13:38.639Z,22.97
2018-06-10T21:16:13.092Z,21.43
2018-06-10T21:18:47.392Z,19.57
2018-06-10T21:21:23.192Z,28.33
2018-06-10T21:23:58.548Z,22.17
2018-06-10T21:26:32.798Z,19.30
2018-06-10T21:29:07.406Z,21.40
2018-06-10T21:31:41.722Z,18.27
2018-06-10T21:34:16.147Z,19.47
2018-06-10T21:36:50.178Z,19.93
2018-06-10T21:39:25.349Z,25.37
2018-06-10T21:41:59.561Z,18.10
2018-06-10T21:44:34.828Z,23.40
2018-06-10T21:47:09.235Z,27.43
2018-06-10T21:49:43.435Z,18.77
2018-06-10T21:52:19.351Z,20.43
2018-06-10T21:54:53.631Z,23.07
2018-06-10T21:57:27.704Z,18.23
2018-06-10T22:00:01.994Z,20.77
2018-06-10T22:02:37.535Z,19.83
2018-06-10T22:05:12.248Z,23.43
2018-06-10T22:07:46.244Z,20.10
2018-06-10T22:10:21.537Z,25.53
2018-06-10T22:12:55.891Z,21.10
2018-06-10T22:15:30.301Z,23.50
2018-06-10T22:18:04.632Z,21.27
2018-06-10T22:20:39.131Z,22.67
2018-06-10T22:23:13.510Z,26.80
2018-06-10T22:25:48.670Z,28.73
2018-06-10T22:28:24.051Z,24.40
2018-06-10T22:30:58.260Z,26.63
2018-06-10T22:33:32.861Z,19.60
2018-06-10T22:36:07.046Z,21.33
2018-06-10T22:38:41.285Z,20.73
2018-06-10T22:41:16.445Z,18.33
2018-06-10T22:43:50.651Z,17.73
2018-06-10T22:46:27.197Z,17.13
2018-06-10T22:49:02.044Z,23.57
2018-06-10T22:51:36.443Z,26.40
2018-06-10T22:54:21.854Z,24.03
2018-06-10T22:56:56.753Z,27.10
2018-06-10T22:59:31.002Z,30.43
2018-06-10T23:02:06.455Z,27.23
2018-06-10T23:04:40.979Z,37.43
2018-06-10T23:07:15.765Z,27.40
2018-06-10T23:09:49.943Z,37.83
2018-06-10T23:12:24.186Z,48.60
2018-06-10T23:14:59.398Z,34.80
2018-06-10T23:17:39.381Z,38.83
2018-06-10T23:20:13.637Z,38.17
2018-06-10T23:22:47.937Z,30.77
2018-06-10T23:25:22.622Z,32.67
2018-06-10T23:27:56.976Z,20.50
2018-06-10T23:30:31.249Z,18.27
2018-06-10T23:33:05.892Z,24.03
2018-06-10T23:35:41.095Z,21.03
2018-06-10T23:38:16.804Z,21.33
2018-06-10T23:40:50.980Z,23.20
2018-06-10T23:43:25.357Z,20.47
2018-06-10T23:45:59.997Z,23.83
2018-06-10T23:48:34.609Z,19.53
2018-06-10T23:51:08.853Z,22.27
2018-06-10T23:53:42.857Z,19.67
2018-06-10T23:56:17.118Z,18.53
2018-06-10T23:58:51.369Z,30.07
